Time;durP1;ratioP1;P1;durP2;ratioP2;P2;SDS_P1;SDS_P2;PMS_P1;PMS_P2;Temp;Humidity;BMP_temperature;BMP_pressure;BME280_temperature;BME280_humidity;BME280_pressure;Samples;Min_cycle;Max_cycle;Signal;HPM_P1;HPM_P2
2022/05/06 04:01:07;;;;;;;18.90;16.70;;;13.20;99.90;;;;;;5713731;23;20521;-62
2022/05/06 04:03:34;;;;;;;18.73;16.97;;;13.20;99.90;;;;;;5015917;28;20444;-63
2022/05/06 04:06:01;;;;;;;17.43;15.53;;;13.20;99.90;;;;;;5015449;28;20457;-64
2022/05/06 04:08:28;;;;;;;18.83;16.97;;;13.20;99.90;;;;;;5015297;28;20449;-64
2022/05/06 04:10:55;;;;;;;20.13;18.03;;;13.20;99.90;;;;;;5015250;28;20619;-64
2022/05/06 04:13:21;;;;;;;19.70;17.83;;;13.10;99.90;;;;;;5015122;28;20453;-64
2022/05/06 04:15:50;;;;;;;19.33;17.63;;;13.10;99.90;;;;;;5015236;28;20457;-64
2022/05/06 04:18:18;;;;;;;19.90;18.07;;;13.10;99.90;;;;;;5014775;28;20485;-64
2022/05/06 04:23:33;;;;;;;21.77;19.60;;;13.00;99.90;;;;;;5015206;28;20428;-64
2022/05/06 04:26:01;;;;;;;21.73;19.73;;;13.00;99.90;;;;;;5014552;28;20473;-64
2022/05/06 04:28:29;;;;;;;22.33;19.27;;;12.90;99.90;;;;;;5014970;28;20480;-63
2022/05/06 04:30:56;;;;;;;21.43;19.33;;;12.90;99.90;;;;;;5015079;28;20484;-63
2022/05/06 04:33:26;;;;;;;22.27;19.53;;;12.80;99.90;;;;;;5015040;28;20824;-64
2022/05/06 04:35:54;;;;;;;22.70;20.40;;;12.80;99.90;;;;;;5014380;28;21060;-64
2022/05/06 04:38:22;;;;;;;21.20;18.27;;;12.80;99.90;;;;;;5014884;28;20488;-63
2022/05/06 04:40:49;;;;;;;22.43;18.50;;;12.80;99.90;;;;;;5014894;28;21015;-63
2022/05/06 04:43:20;;;;;;;24.40;17.80;;;12.80;99.90;;;;;;5014723;28;20453;-63
2022/05/06 04:45:48;;;;;;;21.13;18.93;;;12.70;99.90;;;;;;5014601;28;20511;-63
2022/05/06 04:48:15;;;;;;;21.67;19.50;;;12.70;99.90;;;;;;5014439;28;20480;-64
2022/05/06 04:50:44;;;;;;;23.13;20.40;;;12.70;99.90;;;;;;5014354;28;20477;-63
2022/05/06 04:53:11;;;;;;;20.23;18.23;;;12.70;99.90;;;;;;5013903;28;20515;-62
2022/05/06 04:55:40;;;;;;;22.23;19.80;;;12.70;99.90;;;;;;5014526;28;20503;-62
2022/05/06 04:58:07;;;;;;;22.07;19.73;;;12.60;99.90;;;;;;5014075;28;20449;-63
2022/05/06 05:00:34;;;;;;;21.83;19.57;;;12.60;99.90;;;;;;5014085;28;20817;-62
2022/05/06 05:03:02;;;;;;;21.57;19.47;;;12.60;99.90;;;;;;5014373;28;20441;-63
2022/05/06 05:05:29;;;;;;;20.53;18.33;;;12.60;99.90;;;;;;5014276;28;20464;-64
2022/05/06 05:07:57;;;;;;;19.93;17.47;;;12.60;99.90;;;;;;5014717;28;20472;-63
2022/05/06 05:10:24;;;;;;;21.30;18.17;;;12.60;99.90;;;;;;5014182;28;20460;-63
2022/05/06 05:12:51;;;;;;;20.40;17.93;;;12.70;99.90;;;;;;5014076;28;20547;-63
2022/05/06 05:15:18;;;;;;;18.93;17.17;;;12.70;99.90;;;;;;5013641;28;20945;-63
2022/05/06 05:17:46;;;;;;;20.83;18.47;;;12.70;99.90;;;;;;5014068;28;20459;-63
2022/05/06 05:20:13;;;;;;;22.17;19.90;;;12.70;99.90;;;;;;5013748;28;20459;-62
2022/05/06 05:22:40;;;;;;;22.30;18.50;;;12.70;99.90;;;;;;5013781;28;20496;-62
2022/05/06 05:25:09;;;;;;;20.73;18.07;;;12.70;99.90;;;;;;5013830;28;20980;-64
2022/05/06 05:27:37;;;;;;;19.60;16.90;;;12.70;99.90;;;;;;5014182;28;20473;-63
2022/05/06 05:30:06;;;;;;;17.70;15.90;;;12.70;99.90;;;;;;5014058;28;20453;-64
2022/05/06 05:32:33;;;;;;;19.47;17.60;;;12.70;99.90;;;;;;5013761;28;20481;-63
2022/05/06 05:35:00;;;;;;;20.03;18.00;;;12.70;99.90;;;;;;5013917;28;20464;-63
2022/05/06 05:37:27;;;;;;;20.00;17.00;;;12.80;99.90;;;;;;5013845;28;20448;-64
2022/05/06 05:39:53;;;;;;;18.90;16.80;;;12.80;99.90;;;;;;5013375;28;20988;-63
2022/05/06 05:42:27;;;;;;;19.10;15.70;;;12.80;99.90;;;;;;5013990;28;20477;-63
2022/05/06 05:50:23;;;;;;;17.80;15.90;;;12.80;99.90;;;;;;5014059;28;20541;-63
2022/05/06 05:52:50;;;;;;;18.20;16.53;;;12.70;99.90;;;;;;5013876;28;20523;-63
2022/05/06 05:55:18;;;;;;;17.97;16.13;;;12.70;99.90;;;;;;5013994;28;20456;-63
2022/05/06 05:57:46;;;;;;;19.13;17.17;;;12.70;99.90;;;;;;5013791;28;20449;-63
2022/05/06 06:00:13;;;;;;;19.07;17.07;;;12.70;99.90;;;;;;5013679;28;20896;-63
2022/05/06 06:02:40;;;;;;;19.00;16.10;;;12.60;99.90;;;;;;5014957;28;20467;-62
2022/05/06 06:05:08;;;;;;;16.57;15.10;;;12.60;99.90;;;;;;5014023;28;20453;-63
2022/05/06 06:07:35;;;;;;;17.10;15.57;;;12.60;99.90;;;;;;5013816;28;20816;-63
2022/05/06 06:10:01;;;;;;;17.80;15.70;;;12.60;99.90;;;;;;5013922;28;20799;-63
2022/05/06 06:12:28;;;;;;;17.37;15.50;;;12.60;99.90;;;;;;5013490;28;20977;-63
2022/05/06 06:14:56;;;;;;;16.70;14.90;;;12.60;99.90;;;;;;5014098;28;20457;-65
2022/05/06 06:17:23;;;;;;;16.00;14.40;;;12.60;99.90;;;;;;5013717;28;20444;-64
2022/05/06 06:19:49;;;;;;;15.97;14.53;;;12.60;99.90;;;;;;5013487;28;21005;-63
2022/05/06 06:22:16;;;;;;;18.30;14.53;;;12.60;99.90;;;;;;5013450;28;20472;-63
2022/05/06 06:24:43;;;;;;;17.07;14.77;;;12.50;99.90;;;;;;5013571;28;20456;-63
2022/05/06 06:27:09;;;;;;;15.87;14.17;;;12.50;99.90;;;;;;5013425;28;20480;-63
2022/05/06 06:29:36;;;;;;;16.27;14.33;;;12.50;99.90;;;;;;5013587;28;20460;-63
2022/05/06 06:32:05;;;;;;;16.70;15.20;;;12.60;99.90;;;;;;5012927;28;20981;-63
2022/05/06 06:34:32;;;;;;;15.00;13.60;;;12.60;99.90;;;;;;5013454;28;20480;-63
2022/05/06 06:36:59;;;;;;;15.77;14.37;;;12.60;99.90;;;;;;5013304;28;20545;-63
2022/05/06 06:39:25;;;;;;;14.90;13.60;;;12.70;99.90;;;;;;5013537;28;20464;-63
2022/05/06 06:41:52;;;;;;;14.80;13.43;;;12.60;99.90;;;;;;5013418;28;20472;-63
2022/05/06 06:44:19;;;;;;;16.13;13.30;;;12.70;99.90;;;;;;5013401;28;20867;-63
2022/05/06 06:46:45;;;;;;;14.80;13.40;;;12.70;99.90;;;;;;5016560;28;20453;-63
2022/05/06 06:49:13;;;;;;;15.43;13.93;;;12.70;99.90;;;;;;5028304;28;20480;-63
2022/05/06 06:51:40;;;;;;;14.00;12.80;;;12.80;99.90;;;;;;5016704;28;20472;-63
2022/05/06 06:54:07;;;;;;;16.40;13.97;;;12.80;99.90;;;;;;5016452;28;20945;-63
2022/05/06 06:56:33;;;;;;;15.67;14.30;;;12.70;99.90;;;;;;5016762;28;20880;-63
2022/05/06 06:59:00;;;;;;;17.30;15.50;;;12.70;99.90;;;;;;5020662;28;20460;-63
2022/05/06 07:01:27;;;;;;;16.57;13.83;;;12.60;99.90;;;;;;5026053;28;20485;-63
2022/05/06 07:03:53;;;;;;;16.17;13.70;;;12.70;99.90;;;;;;5018172;28;20934;-63
2022/05/06 07:11:56;;;;;;;18.97;14.13;;;12.70;99.90;;;;;;5016146;28;20487;-63
2022/05/06 07:14:25;;;;;;;15.83;13.67;;;12.80;99.90;;;;;;5016189;28;20433;-63
2022/05/06 07:16:52;;;;;;;14.60;13.30;;;12.80;99.90;;;;;;5016221;28;20466;-63
2022/05/06 07:19:20;;;;;;;13.90;12.70;;;12.90;99.90;;;;;;5016233;28;20460;-63
2022/05/06 07:21:49;;;;;;;15.63;13.03;;;12.90;99.90;;;;;;5016292;28;20473;-63
2022/05/06 07:24:16;;;;;;;14.17;12.97;;;12.90;99.90;;;;;;5017157;28;20461;-63
2022/05/06 07:26:43;;;;;;;13.97;12.67;;;12.90;99.90;;;;;;5016831;28;20453;-63
2022/05/06 07:29:10;;;;;;;14.00;12.67;;;13.00;99.90;;;;;;5016351;28;20484;-64
2022/05/06 07:31:36;;;;;;;13.77;12.57;;;13.00;99.90;;;;;;5015660;28;20834;-64
2022/05/06 07:34:03;;;;;;;16.23;13.20;;;13.00;99.90;;;;;;5015981;28;20456;-63
2022/05/06 07:36:30;;;;;;;14.53;12.70;;;13.10;99.90;;;;;;5016096;28;20445;-63
2022/05/06 07:38:58;;;;;;;16.10;13.67;;;13.20;99.90;;;;;;5015915;28;20449;-63
2022/05/06 07:41:25;;;;;;;13.97;12.10;;;13.30;99.90;;;;;;5015724;28;20539;-63
2022/05/06 07:43:52;;;;;;;14.47;12.70;;;13.40;99.90;;;;;;5015488;28;20988;-63
2022/05/06 07:46:19;;;;;;;13.43;12.13;;;13.50;99.90;;;;;;5015883;28;20452;-63
2022/05/06 07:48:46;;;;;;;14.30;12.87;;;13.50;99.90;;;;;;5015571;28;20484;-63
2022/05/06 07:51:12;;;;;;;12.83;11.63;;;13.50;99.90;;;;;;5015190;28;20482;-63
2022/05/06 07:53:39;;;;;;;12.20;10.97;;;13.60;99.90;;;;;;5016037;28;20449;-63
2022/05/06 07:56:08;;;;;;;12.40;11.10;;;13.70;99.90;;;;;;5015562;28;20479;-63
2022/05/06 07:58:36;;;;;;;14.53;11.30;;;13.80;99.90;;;;;;5015541;28;20449;-63
2022/05/06 08:01:03;;;;;;;13.13;11.93;;;13.90;99.90;;;;;;5014591;28;20485;-63
2022/05/06 08:06:14;;;;;;;13.07;11.53;;;14.00;99.90;;;;;;5015370;28;20508;-63
2022/05/06 08:08:41;;;;;;;12.37;11.17;;;14.00;99.90;;;;;;5015151;28;20485;-63
2022/05/06 08:11:09;;;;;;;13.40;12.20;;;14.00;99.90;;;;;;5015047;28;20500;-63
2022/05/06 08:13:35;;;;;;;12.80;11.50;;;14.10;99.90;;;;;;5015122;28;20460;-63
2022/05/06 08:16:02;;;;;;;11.53;10.40;;;14.30;99.90;;;;;;5015043;28;20803;-63
2022/05/06 08:18:29;;;;;;;15.50;11.53;;;14.30;99.90;;;;;;5015173;28;20449;-63
2022/05/06 08:20:56;;;;;;;12.07;10.53;;;14.30;99.90;;;;;;5014933;28;20484;-63
2022/05/06 08:23:23;;;;;;;11.47;10.37;;;14.30;99.90;;;;;;5014749;28;20457;-63
2022/05/06 08:25:50;;;;;;;11.83;10.93;;;14.30;99.90;;;;;;5015030;28;20457;-63
2022/05/06 08:28:19;;;;;;;12.63;11.33;;;14.40;99.90;;;;;;5014802;28;20473;-63
2022/05/06 08:30:47;;;;;;;11.93;10.47;;;14.50;99.90;;;;;;5014839;28;20476;-63
2022/05/06 08:33:14;;;;;;;12.43;10.77;;;14.60;99.90;;;;;;5014533;28;20938;-63
2022/05/06 08:35:41;;;;;;;10.20;9.40;;;14.70;99.90;;;;;;5014762;28;20481;-63
2022/05/06 08:38:08;;;;;;;13.07;10.30;;;14.80;99.90;;;;;;5014453;28;20965;-64
2022/05/06 08:40:36;;;;;;;11.67;10.67;;;14.80;99.90;;;;;;5014693;28;20473;-62
2022/05/06 08:43:03;;;;;;;11.13;9.67;;;14.90;99.90;;;;;;5015007;28;20488;-63
2022/05/06 08:51:02;;;;;;;11.27;10.30;;;14.90;99.90;;;;;;5014499;28;20499;-63
2022/05/06 08:53:31;;;;;;;10.87;9.97;;;15.00;99.90;;;;;;5014466;28;20460;-63
2022/05/06 08:55:59;;;;;;;10.10;9.20;;;15.10;99.90;;;;;;5014542;28;20457;-63
2022/05/06 08:58:27;;;;;;;10.87;9.60;;;15.10;99.90;;;;;;5014378;28;20501;-63
2022/05/06 09:01:04;;;;;;;10.73;9.83;;;15.00;99.90;;;;;;5014151;28;20487;-64
2022/05/06 09:03:31;;;;;;;11.70;9.43;;;15.00;99.90;;;;;;5014442;28;20444;-64
2022/05/06 09:05:58;;;;;;;11.50;9.87;;;15.20;99.90;;;;;;5014241;28;20460;-64
2022/05/06 09:08:36;;;;;;;11.10;9.57;;;15.20;99.90;;;;;;5014434;28;20476;-64
2022/05/06 09:11:05;;;;;;;10.77;9.80;;;15.20;99.90;;;;;;5014242;28;20564;-64
2022/05/06 09:13:32;;;;;;;10.07;9.17;;;15.30;99.90;;;;;;5013516;28;20449;-64
2022/05/06 09:19:12;;;;;;;11.53;9.93;;;15.60;99.90;;;;;;5014298;28;20883;-63
2022/05/06 09:21:41;;;;;;;10.60;9.50;;;15.80;99.90;;;;;;5014071;28;20476;-63
2022/05/06 09:24:18;;;;;;;12.30;9.43;;;16.00;99.90;;;;;;5014119;28;20472;-63
2022/05/06 09:26:57;;;;;;;8.80;8.10;;;16.40;99.90;;;;;;5015629;28;20483;-64
2022/05/06 09:29:31;;;;;;;10.60;9.60;;;16.70;99.90;;;;;;5014826;28;20557;-64
2022/05/06 09:32:16;;;;;;;8.43;7.63;;;17.00;99.90;;;;;;5014665;28;20483;-64
2022/05/06 09:34:43;;;;;;;8.90;8.07;;;17.50;99.90;;;;;;5014145;28;20449;-64
2022/05/06 09:37:10;;;;;;;10.47;8.20;;;17.70;99.90;;;;;;5014172;28;20459;-64
2022/05/06 09:39:38;;;;;;;10.00;9.03;;;18.00;99.90;;;;;;5014242;28;20456;-64
2022/05/06 09:42:06;;;;;;;8.80;7.90;;;18.50;99.90;;;;;;5013510;28;20469;-64
2022/05/06 09:44:33;;;;;;;9.47;8.63;;;18.90;99.90;;;;;;5013891;28;20456;-64
2022/05/06 09:47:15;;;;;;;8.30;7.50;;;19.00;99.90;;;;;;5026392;28;20457;-63
2022/05/06 09:49:43;;;;;;;9.13;7.07;;;19.20;99.90;;;;;;5031609;28;20515;-64
2022/05/06 09:52:11;;;;;;;9.60;7.17;;;19.40;99.90;;;;;;5014960;28;20496;-62
2022/05/06 09:54:41;;;;;;;7.07;6.37;;;19.70;99.90;;;;;;5014826;28;20457;-62
2022/05/06 09:57:09;;;;;;;9.07;8.10;;;20.20;99.90;;;;;;5014712;28;20493;-63
2022/05/06 09:59:36;;;;;;;7.47;6.87;;;20.90;99.90;;;;;;5014024;28;20457;-63
2022/05/06 10:02:03;;;;;;;6.70;6.10;;;21.60;99.90;;;;;;5013228;28;20491;-63
2022/05/06 10:04:31;;;;;;;7.00;6.30;;;22.30;99.90;;;;;;5014617;28;20575;-64
2022/05/06 10:07:00;;;;;;;6.20;5.67;;;23.00;99.90;;;;;;5013710;28;20457;-63
2022/05/06 10:09:30;;;;;;;6.00;5.50;;;23.80;99.90;;;;;;5013668;28;20489;-63
2022/05/06 10:12:01;;;;;;;5.93;5.43;;;23.90;97.50;;;;;;5013381;28;20473;-64
2022/05/06 10:14:27;;;;;;;8.23;6.20;;;23.60;96.30;;;;;;5013601;28;20445;-64
2022/05/06 10:16:54;;;;;;;6.53;5.47;;;22.90;96.40;;;;;;5014204;28;20464;-63
2022/05/06 10:19:28;;;;;;;6.40;5.90;;;22.30;99.50;;;;;;5013355;28;20460;-63
2022/05/06 10:21:56;;;;;;;8.10;6.73;;;21.90;98.50;;;;;;5013254;28;20481;-63
2022/05/06 10:24:23;;;;;;;10.70;6.00;;;22.10;98.80;;;;;;5014293;28;20543;-63
2022/05/06 10:26:51;;;;;;;5.77;5.27;;;22.40;99.90;;;;;;5016947;28;20453;-63
2022/05/06 10:32:59;;;;;;;6.30;5.70;;;23.10;96.60;;;;;;5016267;28;20424;-63
2022/05/06 10:35:40;;;;;;;5.70;4.97;;;23.20;94.80;;;;;;5015564;28;20456;-64
2022/05/06 10:38:20;;;;;;;6.17;5.57;;;23.00;95.60;;;;;;5017045;28;20474;-63
2022/05/06 10:40:54;;;;;;;6.00;5.40;;;23.00;95.80;;;;;;5016867;28;20491;-63
2022/05/06 10:43:54;;;;;;;5.93;5.43;;;23.00;96.50;;;;;;5016978;28;20492;-63
2022/05/06 10:46:39;;;;;;;8.03;6.30;;;23.00;96.40;;;;;;5016929;28;20455;-63
2022/05/06 10:49:50;;;;;;;6.20;5.47;;;22.70;94.70;;;;;;5016834;28;20471;-64
2022/05/06 10:52:53;;;;;;;5.77;4.50;;;22.60;95.20;;;;;;5016558;28;20499;-64
2022/05/06 10:55:23;;;;;;;4.73;4.33;;;22.90;97.20;;;;;;5016653;28;20524;-63
2022/05/06 10:57:56;;;;;;;4.83;4.53;;;23.50;94.60;;;;;;5016852;28;20453;-64
2022/05/06 11:00:23;;;;;;;6.17;5.70;;;23.70;95.30;;;;;;5016470;28;20511;-63
2022/05/06 11:02:50;;;;;;;5.87;5.37;;;23.70;91.80;;;;;;5016682;28;20437;-62
2022/05/06 11:05:20;;;;;;;6.43;4.90;;;23.80;92.00;;;;;;5017069;28;20527;-64
2022/05/06 11:07:48;;;;;;;5.27;4.87;;;23.30;90.60;;;;;;5017475;28;20543;-63
2022/05/06 11:10:17;;;;;;;8.20;5.50;;;22.80;93.00;;;;;;5016893;28;21001;-63
2022/05/06 11:12:46;;;;;;;7.10;5.60;;;22.50;94.20;;;;;;5017463;28;20463;-63
2022/05/06 11:15:14;;;;;;;6.33;5.83;;;22.40;92.90;;;;;;5016680;28;20480;-63
2022/05/06 11:17:42;;;;;;;5.60;5.20;;;22.10;92.20;;;;;;5017026;28;20460;-63
2022/05/06 11:20:18;;;;;;;6.20;5.40;;;22.00;94.40;;;;;;5016891;28;20449;-64
2022/05/06 11:22:52;;;;;;;6.33;5.83;;;21.90;94.70;;;;;;5016757;28;20461;-64
2022/05/06 11:25:21;;;;;;;9.60;5.97;;;22.20;95.60;;;;;;5016553;28;20460;-65
2022/05/06 11:27:50;;;;;;;11.10;5.30;;;22.50;95.80;;;;;;5016493;28;20457;-64
2022/05/06 11:30:18;;;;;;;7.10;4.90;;;23.00;95.00;;;;;;5016713;28;20461;-63
2022/05/06 11:32:49;;;;;;;5.73;5.30;;;23.20;94.10;;;;;;5016478;28;20942;-64
2022/05/06 11:35:20;;;;;;;5.67;5.17;;;23.20;93.90;;;;;;5015813;28;20524;-64
2022/05/06 11:37:47;;;;;;;8.00;5.80;;;22.90;92.10;;;;;;5016390;28;20444;-63
2022/05/06 11:40:33;;;;;;;5.70;5.20;;;22.70;92.70;;;;;;5016404;28;20456;-63
2022/05/06 11:43:03;;;;;;;5.50;5.10;;;22.50;92.60;;;;;;5016452;28;20441;-64
2022/05/06 11:48:18;;;;;;;12.27;5.40;;;21.80;93.90;;;;;;5016751;28;20421;-64
2022/05/06 11:50:47;;;;;;;8.60;6.20;;;21.70;93.90;;;;;;5016277;28;20481;-64
2022/05/06 11:53:18;;;;;;;4.80;4.50;;;21.70;94.30;;;;;;5016387;28;20587;-63
2022/05/06 11:55:47;;;;;;;7.03;5.30;;;21.90;94.60;;;;;;5015955;28;20438;-64
2022/05/06 11:58:17;;;;;;;7.40;5.10;;;22.20;94.10;;;;;;5015630;28;20453;-62
2022/05/06 12:00:45;;;;;;;5.23;4.77;;;22.30;93.30;;;;;;5016446;28;20914;-64
2022/05/06 12:03:13;;;;;;;5.87;5.37;;;22.10;94.10;;;;;;5016315;28;20437;-64
2022/05/06 12:05:41;;;;;;;5.97;5.17;;;22.00;92.60;;;;;;5015548;28;20511;-63
2022/05/06 12:08:08;;;;;;;5.20;4.80;;;21.80;92.20;;;;;;5015373;28;20859;-63
2022/05/06 12:10:36;;;;;;;5.30;4.90;;;21.60;94.10;;;;;;5015553;28;20531;-63
2022/05/06 12:13:07;;;;;;;5.63;5.10;;;21.60;93.80;;;;;;5016753;28;20460;-64
2022/05/06 12:15:37;;;;;;;7.77;4.40;;;21.20;93.50;;;;;;5015646;28;20441;-64
2022/05/06 12:18:05;;;;;;;5.33;4.83;;;21.10;95.00;;;;;;5015836;28;20445;-67
2022/05/06 12:20:34;;;;;;;9.80;5.47;;;21.10;95.30;;;;;;5015532;28;20460;-64
2022/05/06 12:23:01;;;;;;;5.37;4.90;;;21.30;95.10;;;;;;5015146;28;20953;-64
2022/05/06 12:25:28;;;;;;;9.07;5.20;;;21.40;96.10;;;;;;5015873;28;20464;-64
2022/05/06 12:28:06;;;;;;;5.90;5.30;;;21.50;94.00;;;;;;5016117;28;20461;-63
2022/05/06 12:30:35;;;;;;;5.53;4.97;;;21.60;93.20;;;;;;5016786;28;20491;-63
2022/05/06 12:33:08;;;;;;;5.27;4.80;;;21.60;93.20;;;;;;5016035;28;20968;-64
2022/05/06 12:35:53;;;;;;;6.03;5.40;;;21.70;93.00;;;;;;5018494;28;20449;-64
2022/05/06 12:38:21;;;;;;;7.87;5.50;;;21.50;93.70;;;;;;5017880;28;20465;-63
2022/05/06 12:40:49;;;;;;;6.40;4.70;;;21.40;93.20;;;;;;5017678;28;20479;-64
2022/05/06 12:43:16;;;;;;;9.40;5.33;;;21.40;93.20;;;;;;5017644;28;20484;-64
2022/05/06 12:45:54;;;;;;;5.13;4.73;;;21.10;93.80;;;;;;5018041;28;20463;-63
2022/05/06 12:51:05;;;;;;;6.70;6.10;;;21.20;94.10;;;;;;5016696;28;20515;-63
2022/05/06 12:53:33;;;;;;;5.53;4.97;;;21.40;96.00;;;;;;5017040;28;20528;-63
2022/05/06 12:56:00;;;;;;;7.87;5.60;;;21.60;95.00;;;;;;5016138;28;20452;-63
2022/05/06 12:58:28;;;;;;;6.30;5.67;;;21.60;93.30;;;;;;5016150;28;20491;-62
2022/05/06 13:00:56;;;;;;;6.10;5.60;;;21.70;95.80;;;;;;5016364;28;20492;-63
2022/05/06 13:03:23;;;;;;;5.63;5.10;;;21.60;93.60;;;;;;5016746;28;20543;-63
2022/05/06 13:05:50;;;;;;;7.13;5.80;;;21.60;94.80;;;;;;5016285;28;20456;-64
2022/05/06 13:08:18;;;;;;;7.27;5.30;;;21.60;94.40;;;;;;5015499;28;20463;-64
2022/05/06 13:10:44;;;;;;;6.10;5.47;;;21.70;96.30;;;;;;5014950;28;20524;-64
2022/05/06 13:13:11;;;;;;;6.50;5.90;;;21.80;94.10;;;;;;5020428;28;20460;-64
2022/05/06 13:15:38;;;;;;;6.37;5.87;;;22.00;94.20;;;;;;5027734;28;20452;-63
2022/05/06 13:18:06;;;;;;;6.23;5.60;;;22.20;93.80;;;;;;5015801;28;20449;-63
2022/05/06 13:20:33;;;;;;;6.20;5.60;;;22.40;92.30;;;;;;5015729;28;20480;-62
2022/05/06 13:23:00;;;;;;;6.03;4.87;;;22.40;91.10;;;;;;5014563;28;20960;-63
2022/05/06 13:25:27;;;;;;;5.83;5.23;;;22.50;93.10;;;;;;5014676;28;20526;-63
2022/05/06 13:27:55;;;;;;;7.40;5.30;;;22.60;93.90;;;;;;5014431;28;20445;-63
2022/05/06 13:30:21;;;;;;;6.07;5.53;;;22.60;91.40;;;;;;5014059;28;20476;-63
2022/05/06 13:32:48;;;;;;;6.37;5.40;;;22.40;93.00;;;;;;5014235;28;20453;-63
2022/05/06 13:35:16;;;;;;;5.93;5.33;;;22.30;92.00;;;;;;5014061;28;20457;-63
2022/05/06 13:37:43;;;;;;;6.23;5.63;;;22.30;93.90;;;;;;5014141;28;20460;-63
2022/05/06 13:40:10;;;;;;;5.10;4.80;;;22.30;92.40;;;;;;5014094;28;20449;-63
2022/05/06 13:42:37;;;;;;;6.47;5.60;;;22.30;92.70;;;;;;5013915;28;20484;-63
2022/05/06 13:45:05;;;;;;;5.23;4.73;;;22.20;93.60;;;;;;5013601;28;20969;-63
2022/05/06 13:47:31;;;;;;;5.50;5.10;;;22.10;92.30;;;;;;5013570;28;20946;-64
2022/05/06 13:49:58;;;;;;;5.43;5.03;;;22.10;93.20;;;;;;5013858;28;20485;-63
2022/05/06 13:52:26;;;;;;;5.80;5.13;;;22.00;92.70;;;;;;5013906;28;20504;-63
2022/05/06 13:54:53;;;;;;;5.93;4.90;;;21.70;92.70;;;;;;5013947;28;20449;-64
2022/05/06 14:00:05;;;;;;;6.47;5.90;;;21.30;92.00;;;;;;5016030;28;20460;-63
2022/05/06 14:02:31;;;;;;;6.20;5.60;;;21.20;92.50;;;;;;5017402;28;20484;-63
2022/05/06 14:04:58;;;;;;;6.23;5.63;;;21.20;92.40;;;;;;5017626;28;20456;-63
2022/05/06 14:07:26;;;;;;;5.93;5.43;;;21.20;92.80;;;;;;5017621;28;20460;-64
2022/05/06 14:09:53;;;;;;;17.37;6.03;;;21.20;93.10;;;;;;5017644;28;20480;-63
2022/05/06 14:12:21;;;;;;;6.00;5.50;;;21.30;92.50;;;;;;5017653;28;20891;-64
2022/05/06 14:14:47;;;;;;;7.03;5.33;;;21.20;93.50;;;;;;5017611;28;20456;-64
2022/05/06 14:17:14;;;;;;;6.73;5.70;;;21.20;94.30;;;;;;5017661;28;20507;-64
2022/05/06 14:19:41;;;;;;;5.13;4.73;;;21.20;93.60;;;;;;5017556;28;20459;-64
2022/05/06 14:22:07;;;;;;;6.43;5.80;;;21.20;94.30;;;;;;5017287;28;20473;-64
2022/05/06 14:24:35;;;;;;;5.67;5.17;;;21.20;93.30;;;;;;5017560;28;20456;-63
2022/05/06 14:27:02;;;;;;;5.70;5.17;;;21.20;93.40;;;;;;5016953;28;20969;-63
2022/05/06 14:29:29;;;;;;;5.27;4.87;;;21.30;94.00;;;;;;5017322;28;20796;-64
2022/05/06 14:31:56;;;;;;;5.30;4.90;;;21.40;94.90;;;;;;5017278;28;20479;-63
2022/05/06 14:34:23;;;;;;;8.57;5.47;;;21.40;93.90;;;;;;5017284;28;20522;-63
2022/05/06 14:36:49;;;;;;;5.83;5.33;;;21.30;93.70;;;;;;5017326;28;20456;-63
2022/05/06 14:39:16;;;;;;;10.33;5.60;;;21.40;93.10;;;;;;5017172;28;20452;-63
2022/05/06 14:41:44;;;;;;;6.07;5.20;;;21.40;93.20;;;;;;5016991;28;20473;-63
2022/05/06 14:44:11;;;;;;;5.50;5.10;;;21.20;93.30;;;;;;5017015;28;20449;-63
2022/05/06 14:46:38;;;;;;;6.17;5.13;;;21.10;93.80;;;;;;5017665;28;20479;-62
2022/05/06 14:49:06;;;;;;;5.63;5.30;;;21.10;94.70;;;;;;5016736;28;20457;-62
2022/05/06 14:51:33;;;;;;;6.57;5.97;;;21.00;93.20;;;;;;5016668;28;20480;-62
2022/05/06 14:54:00;;;;;;;8.13;6.10;;;21.10;93.80;;;;;;5016781;28;20469;-62
2022/05/06 14:56:26;;;;;;;10.90;5.53;;;21.00;93.30;;;;;;5016558;28;20461;-62
2022/05/06 14:58:55;;;;;;;6.60;6.10;;;21.00;93.40;;;;;;5016618;28;20452;-63
2022/05/06 15:01:22;;;;;;;6.43;5.73;;;21.00;93.40;;;;;;5016208;28;20498;-62
2022/05/06 15:03:49;;;;;;;6.73;5.43;;;20.80;93.50;;;;;;5016484;28;20945;-62
2022/05/06 15:06:15;;;;;;;9.43;6.00;;;20.80;93.90;;;;;;5017161;28;20457;-62
2022/05/06 15:08:42;;;;;;;7.73;5.63;;;20.70;93.80;;;;;;5016497;28;20460;-62
2022/05/06 15:11:09;;;;;;;6.17;5.57;;;20.70;94.00;;;;;;5015598;28;20485;-62
2022/05/06 15:13:36;;;;;;;6.73;5.27;;;20.60;93.80;;;;;;5016916;28;20548;-62
2022/05/06 15:16:06;;;;;;;6.77;6.20;;;20.60;93.90;;;;;;5016322;28;20461;-62
2022/05/06 15:21:17;;;;;;;8.37;6.67;;;20.40;94.70;;;;;;5016016;28;20515;-63
2022/05/06 15:23:47;;;;;;;6.03;5.30;;;20.50;94.20;;;;;;5015841;28;20507;-62
2022/05/06 15:26:14;;;;;;;6.77;5.57;;;20.50;93.90;;;;;;5016190;28;20453;-62
2022/05/06 15:28:41;;;;;;;5.60;5.10;;;20.50;94.70;;;;;;5016020;28;20449;-62
2022/05/06 15:31:09;;;;;;;5.37;4.93;;;20.50;95.10;;;;;;5015973;28;20535;-62
2022/05/06 15:33:36;;;;;;;5.73;5.23;;;20.50;94.90;;;;;;5016238;28;20456;-62
2022/05/06 15:36:03;;;;;;;4.83;4.43;;;20.50;94.40;;;;;;5015671;28;20460;-62
2022/05/06 15:38:31;;;;;;;4.60;4.20;;;20.60;94.50;;;;;;5015570;28;20820;-62
2022/05/06 15:40:57;;;;;;;4.80;4.50;;;20.60;93.00;;;;;;5015622;28;20476;-64
2022/05/06 15:43:24;;;;;;;5.33;4.83;;;20.60;93.80;;;;;;5016032;28;20463;-63
2022/05/06 15:45:51;;;;;;;4.67;4.20;;;20.50;92.30;;;;;;5016082;28;20453;-63
2022/05/06 15:48:19;;;;;;;5.10;4.60;;;20.50;93.60;;;;;;5015940;28;20445;-64
2022/05/06 15:50:46;;;;;;;5.47;4.97;;;20.50;95.00;;;;;;5016144;28;20496;-63
2022/05/06 15:53:13;;;;;;;5.90;5.40;;;20.50;95.70;;;;;;5015426;28;20452;-64
2022/05/06 15:55:39;;;;;;;5.30;4.73;;;20.50;95.10;;;;;;5015206;28;20503;-64
2022/05/06 15:58:06;;;;;;;5.47;4.97;;;20.50;94.50;;;;;;5015869;28;20453;-64
2022/05/06 16:00:33;;;;;;;4.57;4.20;;;20.50;93.90;;;;;;5015085;28;20469;-64
2022/05/06 16:03:00;;;;;;;4.90;4.53;;;20.50;93.90;;;;;;5015443;28;20447;-63
2022/05/06 16:05:29;;;;;;;5.30;4.77;;;20.50;94.30;;;;;;5014740;28;20453;-63
2022/05/06 16:07:55;;;;;;;4.50;3.57;;;20.50;95.90;;;;;;5015253;28;20457;-63
2022/05/06 16:10:24;;;;;;;9.63;4.70;;;20.40;93.90;;;;;;5019813;28;20480;-63
2022/05/06 16:12:50;;;;;;;4.50;4.20;;;20.40;92.80;;;;;;5016516;28;20460;-63
2022/05/06 16:15:22;;;;;;;4.67;4.27;;;20.20;92.60;;;;;;5015333;28;20456;-63
2022/05/06 16:17:50;;;;;;;4.37;4.07;;;20.20;92.50;;;;;;5015741;28;20499;-63
2022/05/06 16:20:18;;;;;;;4.37;3.83;;;20.20;93.10;;;;;;5015485;28;20457;-64
2022/05/06 16:22:46;;;;;;;5.23;4.33;;;20.10;93.30;;;;;;5014891;28;20843;-63
2022/05/06 16:25:13;;;;;;;5.20;4.67;;;20.00;92.70;;;;;;5015024;28;20453;-63
2022/05/06 16:27:40;;;;;;;5.57;5.07;;;20.00;93.30;;;;;;5014885;28;20452;-63
2022/05/06 16:30:10;;;;;;;4.37;4.07;;;20.00;92.90;;;;;;5014890;28;20453;-64
2022/05/06 16:32:38;;;;;;;4.67;4.37;;;19.90;94.00;;;;;;5014954;28;20473;-63
2022/05/06 16:37:52;;;;;;;6.20;4.43;;;19.80;93.70;;;;;;5014512;28;20780;-63
2022/05/06 16:40:19;;;;;;;5.53;4.23;;;19.80;92.40;;;;;;5014500;28;20962;-64
2022/05/06 16:42:45;;;;;;;4.13;3.90;;;19.80;94.70;;;;;;5014877;28;20531;-64
2022/05/06 16:45:13;;;;;;;9.10;4.93;;;19.80;99.90;;;;;;5014688;28;20460;-64
2022/05/06 16:47:40;;;;;;;4.57;4.17;;;19.80;97.70;;;;;;5014410;28;20460;-64
2022/05/06 16:50:09;;;;;;;5.13;4.53;;;19.80;95.30;;;;;;5014184;28;20452;-64
2022/05/06 16:52:36;;;;;;;4.67;4.27;;;19.80;95.50;;;;;;5014153;28;21052;-64
2022/05/06 16:55:05;;;;;;;5.73;5.23;;;19.80;95.00;;;;;;5014240;28;20960;-64
2022/05/06 16:57:32;;;;;;;5.47;5.00;;;19.70;96.80;;;;;;5014571;28;20503;-63
2022/05/06 16:59:59;;;;;;;5.13;4.30;;;19.70;97.70;;;;;;5014435;28;20460;-63
2022/05/06 17:02:26;;;;;;;3.90;3.57;;;19.60;93.60;;;;;;5013961;28;20480;-63
2022/05/06 17:04:52;;;;;;;5.17;4.67;;;19.60;93.20;;;;;;5014006;28;20957;-63
2022/05/06 17:07:19;;;;;;;3.60;3.30;;;19.50;93.70;;;;;;5014216;28;20457;-63
2022/05/06 17:09:46;;;;;;;4.53;4.00;;;19.60;94.00;;;;;;5014679;28;20457;-64
2022/05/06 17:12:14;;;;;;;4.90;4.20;;;19.50;94.10;;;;;;5014085;28;20516;-62
2022/05/06 17:14:41;;;;;;;7.63;3.57;;;19.50;93.70;;;;;;5013785;28;20830;-62
2022/05/06 17:17:07;;;;;;;3.50;3.20;;;19.50;93.70;;;;;;5014079;28;20523;-64
2022/05/06 17:19:34;;;;;;;4.50;3.50;;;19.40;94.40;;;;;;5014258;28;20531;-63
2022/05/06 17:22:01;;;;;;;5.23;4.83;;;19.40;93.60;;;;;;5013780;28;20472;-62
2022/05/06 17:24:27;;;;;;;4.07;3.77;;;19.40;93.80;;;;;;5014088;28;20507;-62
2022/05/06 17:26:54;;;;;;;3.43;3.13;;;19.40;93.90;;;;;;5014119;28;20460;-63